Andoain, Spain
Current Conditions -  °F | °C
As of 9:30 PM on Monday 20 Oct 2014 (Local Time) from LESO Reporting Station
Few Clouds Few Clouds  
Wind Chill: 66°   Ceiling: Unl
Heat Index: 66°   Visibility: 6mi
Dew Point: 63°   Wind: 0mph
Humidity: 88%   Direction: NA
Pressure: 30.15"   Gusts: NA
Location:  43.22°N, 2.03°W
Report Text: LESO 201930Z 00000KT 9999 FEW011 19/17 Q1021
Loading
Personal Weather Stations






























Interactive Weather Map
Tropical Storm Tracking
New forecast layout! Learn more

10-Day Weather Forecast

Advertisements
Track Severe Weather on mobile